Time;durP1;ratioP1;P1;durP2;ratioP2;P2;SDS_P1;SDS_P2;PMS_P1;PMS_P2;Temp;Humidity;BMP_temperature;BMP_pressure;BME280_temperature;BME280_humidity;BME280_pressure;Samples;Min_cycle;Max_cycle;Signal;HPM_P1;HPM_P2
2023/03/07 00:01:00;;;;;;;;;;;;;;;6.22;56.31;95959.44;5012459;28;20365;-77
2023/03/07 00:03:25;;;;;;;;;;;;;;;6.24;56.78;95961.75;5017296;28;20519;-77
2023/03/07 00:06:01;;;;;;;;;;;;;;;6.35;57.07;95959.00;4993275;28;19964;-77
2023/03/07 00:08:26;;;;;;;;;;;;;;;6.41;56.84;95953.88;5004354;28;19995;-77
2023/03/07 00:10:51;;;;;;;;;;;;;;;6.47;57.04;95958.84;4997147;28;20361;-77
2023/03/07 00:13:16;;;;;;;;;;;;;;;6.30;57.50;95955.59;5012253;28;20027;-77
2023/03/07 00:15:42;;;;;;;;;;;;;;;6.29;56.87;95954.03;4989134;28;19924;-77
2023/03/07 00:18:07;;;;;;;;;;;;;;;6.36;57.51;95955.41;5010337;28;19913;-77
2023/03/07 00:20:32;;;;;;;;;;;;;;;6.32;57.65;95953.53;5005364;28;20300;-77
2023/03/07 00:22:57;;;;;;;;;;;;;;;6.18;58.26;95964.28;5019076;28;19913;-77
2023/03/07 00:25:23;;;;;;;;;;;;;;;6.39;57.66;95954.09;4995668;28;19914;-77
2023/03/07 00:27:48;;;;;;;;;;;;;;;6.33;57.63;95955.13;5008905;28;19913;-77
2023/03/07 00:30:13;;;;;;;;;;;;;;;6.33;57.84;95949.94;5001231;28;20327;-77
2023/03/07 00:32:38;;;;;;;;;;;;;;;6.18;58.85;95946.19;4992275;28;19924;-77
2023/03/07 00:35:04;;;;;;;;;;;;;;;6.02;58.68;95934.19;4999373;28;19974;-77
2023/03/07 00:37:29;;;;;;;;;;;;;;;6.04;58.96;95939.88;5009071;28;20423;-77
2023/03/07 00:39:55;;;;;;;;;;;;;;;6.06;59.89;95942.22;5017511;28;19917;-77
2023/03/07 00:42:20;;;;;;;;;;;;;;;6.13;58.80;95935.03;5008888;28;19944;-77
2023/03/07 00:44:45;;;;;;;;;;;;;;;6.21;59.71;95937.19;5006858;28;19944;-78
2023/03/07 00:47:11;;;;;;;;;;;;;;;5.89;60.27;95942.31;5010571;28;19920;-77
2023/03/07 00:49:36;;;;;;;;;;;;;;;6.11;59.96;95937.09;5014904;28;19913;-77
2023/03/07 00:52:01;;;;;;;;;;;;;;;6.19;59.45;95929.69;5009580;28;19917;-77
2023/03/07 00:54:26;;;;;;;;;;;;;;;6.18;59.55;95932.50;4997664;28;20003;-77
2023/03/07 00:56:52;;;;;;;;;;;;;;;6.24;59.40;95921.19;5010791;28;20307;-77
2023/03/07 00:59:17;;;;;;;;;;;;;;;6.25;59.79;95921.97;5016559;28;20007;-77
2023/03/07 01:01:42;;;;;;;;;;;;;;;5.92;60.65;95923.72;5008178;28;19917;-77
2023/03/07 01:04:08;;;;;;;;;;;;;;;5.84;61.10;95922.34;5014897;28;20369;-77
2023/03/07 01:06:33;;;;;;;;;;;;;;;6.03;60.66;95920.22;5024596;28;20003;-77
2023/03/07 01:09:00;;;;;;;;;;;;;;;6.20;60.46;95917.53;5004379;28;19920;-77
2023/03/07 01:11:26;;;;;;;;;;;;;;;5.95;60.34;95918.84;5027584;28;19913;-78
2023/03/07 01:13:53;;;;;;;;;;;;;;;5.94;60.76;95912.13;5026810;28;19920;-77
2023/03/07 01:16:24;;;;;;;;;;;;;;;5.71;61.07;95912.44;5008312;28;19936;-77
2023/03/07 01:18:52;;;;;;;;;;;;;;;5.76;61.46;95909.91;5025502;28;19975;-77
2023/03/07 01:21:24;;;;;;;;;;;;;;;5.76;61.52;95910.69;5008462;28;19919;-77
2023/03/07 01:23:50;;;;;;;;;;;;;;;5.96;61.29;95914.50;5015650;28;20019;-77
2023/03/07 01:26:19;;;;;;;;;;;;;;;6.02;60.82;95913.53;4997927;28;20007;-77
2023/03/07 01:28:44;;;;;;;;;;;;;;;5.71;61.24;95908.06;4998728;28;19967;-77
2023/03/07 01:31:10;;;;;;;;;;;;;;;5.90;61.65;95910.28;5018007;28;19921;-78
2023/03/07 01:33:35;;;;;;;;;;;;;;;5.77;61.63;95907.06;5027099;28;20439;-77
2023/03/07 01:36:00;;;;;;;;;;;;;;;5.74;61.29;95915.31;5011736;28;19913;-78
2023/03/07 01:38:27;;;;;;;;;;;;;;;5.74;61.63;95912.75;5025595;28;20379;-77
2023/03/07 01:40:53;;;;;;;;;;;;;;;5.82;62.12;95908.91;5010813;28;19924;-77
2023/03/07 01:43:28;;;;;;;;;;;;;;;5.70;62.18;95909.06;5006114;28;19909;-79
2023/03/07 01:46:12;;;;;;;;;;;;;;;5.88;61.79;95909.72;4991901;28;19913;-77
2023/03/07 01:48:37;;;;;;;;;;;;;;;5.85;62.13;95903.28;5010163;28;19913;-77
2023/03/07 01:51:03;;;;;;;;;;;;;;;5.72;61.84;95899.25;5027004;28;20011;-77
2023/03/07 01:53:28;;;;;;;;;;;;;;;5.68;62.66;95897.44;5025369;28;19913;-77
2023/03/07 01:55:53;;;;;;;;;;;;;;;5.77;62.05;95894.16;5027372;28;19960;-77
2023/03/07 01:58:19;;;;;;;;;;;;;;;5.61;62.38;95892.47;4995004;28;19979;-77
2023/03/07 02:00:44;;;;;;;;;;;;;;;5.90;62.26;95887.81;5013048;28;20381;-77
2023/03/07 02:03:09;;;;;;;;;;;;;;;5.97;62.03;95879.88;5004243;22;19997;-75
2023/03/07 02:05:37;;;;;;;;;;;;;;;5.92;61.83;95869.50;5000426;28;19968;-75
2023/03/07 02:08:02;;;;;;;;;;;;;;;5.92;61.10;95872.06;4985667;28;20428;-76
2023/03/07 02:10:27;;;;;;;;;;;;;;;6.03;61.22;95867.78;4993834;28;19992;-75
2023/03/07 02:12:53;;;;;;;;;;;;;;;5.96;61.05;95868.78;4998095;28;20004;-75
2023/03/07 02:15:18;;;;;;;;;;;;;;;6.04;61.54;95864.94;5014347;28;19913;-75
2023/03/07 02:17:43;;;;;;;;;;;;;;;6.06;61.36;95862.13;4996967;28;19944;-75
2023/03/07 02:20:09;;;;;;;;;;;;;;;5.91;61.73;95855.00;5012393;28;19917;-76
2023/03/07 02:22:34;;;;;;;;;;;;;;;5.98;61.60;95860.75;5013045;28;20372;-75
2023/03/07 02:25:22;;;;;;;;;;;;;;;5.94;61.99;95859.69;5014321;28;20391;-75
2023/03/07 02:27:48;;;;;;;;;;;;;;;5.87;61.80;95849.56;4972560;28;20385;-75
2023/03/07 02:30:13;;;;;;;;;;;;;;;5.74;62.90;95844.78;4995564;28;19913;-74
2023/03/07 02:32:39;;;;;;;;;;;;;;;5.93;62.00;95842.59;5000637;28;19921;-75
2023/03/07 02:35:10;;;;;;;;;;;;;;;5.88;62.20;95851.13;5009639;28;20403;-74
2023/03/07 02:37:36;;;;;;;;;;;;;;;5.89;61.81;95842.31;4995989;28;19919;-75
2023/03/07 02:40:04;;;;;;;;;;;;;;;5.88;62.52;95842.56;4980864;28;19996;-75
2023/03/07 02:42:30;;;;;;;;;;;;;;;5.70;63.41;95844.50;5011794;28;20023;-75
2023/03/07 02:44:56;;;;;;;;;;;;;;;5.73;63.14;95833.69;5000583;28;20016;-75
2023/03/07 02:47:22;;;;;;;;;;;;;;;5.74;62.17;95830.09;5002621;28;20312;-74
2023/03/07 02:49:47;;;;;;;;;;;;;;;5.97;62.20;95820.47;5021573;28;19914;-75
2023/03/07 02:52:12;;;;;;;;;;;;;;;5.50;63.03;95826.25;4994125;28;20005;-75
2023/03/07 02:54:37;;;;;;;;;;;;;;;5.67;62.82;95823.56;4997495;28;19920;-76
2023/03/07 02:57:03;;;;;;;;;;;;;;;5.87;62.59;95828.13;5012721;28;20146;-75
2023/03/07 02:59:28;;;;;;;;;;;;;;;5.73;62.65;95825.16;4984578;28;19944;-76
2023/03/07 03:01:54;;;;;;;;;;;;;;;5.69;63.10;95830.06;5013323;28;19913;-74
2023/03/07 03:04:19;;;;;;;;;;;;;;;5.79;61.98;95822.38;5012853;28;20019;-76
2023/03/07 03:06:44;;;;;;;;;;;;;;;5.59;63.04;95817.06;4975549;28;19916;-75
2023/03/07 03:09:10;;;;;;;;;;;;;;;5.83;62.14;95825.25;4991617;28;19921;-76
2023/03/07 03:11:35;;;;;;;;;;;;;;;5.89;62.19;95826.81;4993408;28;20273;-76
2023/03/07 03:14:00;;;;;;;;;;;;;;;5.97;61.67;95823.81;4993326;28;19941;-75
2023/03/07 03:16:26;;;;;;;;;;;;;;;5.97;61.16;95823.06;4991376;28;19921;-76
2023/03/07 03:18:51;;;;;;;;;;;;;;;5.92;61.81;95823.00;4992388;28;20696;-75
2023/03/07 03:21:16;;;;;;;;;;;;;;;5.97;61.08;95823.81;5010604;28;19940;-75
2023/03/07 03:23:41;;;;;;;;;;;;;;;6.02;61.40;95812.75;4991514;28;19923;-74
2023/03/07 03:26:10;;;;;;;;;;;;;;;5.88;62.03;95803.81;5008037;28;19924;-76
2023/03/07 03:28:35;;;;;;;;;;;;;;;6.08;61.38;95809.16;4991132;28;19914;-76
2023/03/07 03:31:02;;;;;;;;;;;;;;;6.16;60.75;95800.19;4994006;28;19921;-75
2023/03/07 03:33:30;;;;;;;;;;;;;;;6.01;60.72;95803.44;4998139;28;20051;-76
2023/03/07 03:35:56;;;;;;;;;;;;;;;6.06;61.60;95810.44;4969197;28;20007;-75
2023/03/07 03:38:21;;;;;;;;;;;;;;;5.70;61.65;95798.03;4989480;28;19947;-75
2023/03/07 03:40:47;;;;;;;;;;;;;;;5.74;62.95;95796.53;5022828;28;20319;-75
2023/03/07 03:43:12;;;;;;;;;;;;;;;5.88;61.31;95796.06;4974269;28;19913;-75
2023/03/07 03:45:39;;;;;;;;;;;;;;;6.05;61.68;95795.97;5028125;28;19913;-75
2023/03/07 03:48:04;;;;;;;;;;;;;;;5.71;62.55;95799.59;4995701;28;19920;-75
2023/03/07 03:50:29;;;;;;;;;;;;;;;5.83;61.93;95796.84;4992484;28;20373;-74
2023/03/07 03:52:55;;;;;;;;;;;;;;;5.60;62.71;95791.00;5009302;28;20507;-75
2023/03/07 03:55:20;;;;;;;;;;;;;;;5.58;63.29;95784.50;5010612;28;20335;-74
2023/03/07 03:57:45;;;;;;;;;;;;;;;5.47;63.23;95782.84;5007992;28;19910;-74
2023/03/07 04:00:13;;;;;;;;;;;;;;;5.62;62.67;95770.88;5008981;28;19924;-74
2023/03/07 04:02:38;;;;;;;;;;;;;;;5.83;61.87;95778.75;5011944;28;19928;-75
2023/03/07 04:05:04;;;;;;;;;;;;;;;5.85;62.26;95775.94;5026531;28;19917;-74
2023/03/07 04:07:29;;;;;;;;;;;;;;;6.03;61.96;95780.72;5005732;28;19914;-75
2023/03/07 04:09:54;;;;;;;;;;;;;;;5.79;62.01;95773.31;4997258;28;19956;-73
2023/03/07 04:12:20;;;;;;;;;;;;;;;5.93;62.24;95765.13;5017428;28;19917;-75
2023/03/07 04:14:45;;;;;;;;;;;;;;;5.77;62.54;95766.81;4994360;28;20368;-75
2023/03/07 04:17:10;;;;;;;;;;;;;;;5.90;61.69;95758.66;4975320;28;19914;-75
2023/03/07 04:19:36;;;;;;;;;;;;;;;6.01;62.06;95764.69;5008699;28;19922;-75
2023/03/07 04:22:01;;;;;;;;;;;;;;;6.12;60.86;95763.72;5018198;28;19952;-76
2023/03/07 04:24:26;;;;;;;;;;;;;;;6.11;60.76;95761.38;4976475;28;19921;-76
2023/03/07 04:26:51;;;;;;;;;;;;;;;6.14;60.95;95756.50;4991341;28;19913;-76
2023/03/07 04:29:17;;;;;;;;;;;;;;;5.75;62.05;95748.22;5006189;28;19920;-73
2023/03/07 04:31:42;;;;;;;;;;;;;;;5.91;61.13;95741.34;4991577;28;19933;-76
2023/03/07 04:34:07;;;;;;;;;;;;;;;5.73;63.08;95745.88;5005914;28;19917;-74
2023/03/07 04:36:33;;;;;;;;;;;;;;;6.00;60.93;95745.06;4980392;28;19964;-75
2023/03/07 04:38:58;;;;;;;;;;;;;;;6.09;60.94;95743.53;5003734;28;20308;-75
2023/03/07 04:41:25;;;;;;;;;;;;;;;6.17;60.55;95747.47;5008046;28;19914;-76
2023/03/07 04:43:50;;;;;;;;;;;;;;;6.13;60.63;95738.66;5001049;28;19917;-75
2023/03/07 04:46:16;;;;;;;;;;;;;;;6.10;60.73;95745.13;5003132;28;19920;-75
2023/03/07 04:48:41;;;;;;;;;;;;;;;6.07;60.99;95748.19;5001889;28;20172;-76
2023/03/07 04:51:06;;;;;;;;;;;;;;;6.17;61.28;95748.25;4987299;28;19914;-75
2023/03/07 04:53:32;;;;;;;;;;;;;;;6.11;60.85;95746.66;4989259;28;19917;-75
2023/03/07 04:55:57;;;;;;;;;;;;;;;6.07;60.85;95750.00;4990116;28;20278;-75
2023/03/07 04:58:23;;;;;;;;;;;;;;;6.12;60.12;95743.06;4972473;28;19913;-76
2023/03/07 05:00:48;;;;;;;;;;;;;;;6.10;61.13;95739.94;4992980;28;19919;-76
2023/03/07 05:03:14;;;;;;;;;;;;;;;6.10;61.06;95737.38;4971859;28;19968;-75
2023/03/07 05:05:39;;;;;;;;;;;;;;;6.21;60.21;95729.66;5002185;28;19920;-75
2023/03/07 05:08:05;;;;;;;;;;;;;;;6.09;60.51;95737.59;5007760;28;19920;-75
2023/03/07 05:10:30;;;;;;;;;;;;;;;6.08;60.44;95731.63;5007312;28;20055;-75
2023/03/07 05:12:56;;;;;;;;;;;;;;;6.10;59.99;95733.97;4992289;28;19913;-75
2023/03/07 05:15:21;;;;;;;;;;;;;;;5.86;61.79;95736.16;4990615;28;20007;-73
2023/03/07 05:17:46;;;;;;;;;;;;;;;5.98;61.29;95739.34;4991290;28;19917;-75
2023/03/07 05:20:12;;;;;;;;;;;;;;;6.16;60.37;95727.81;4990959;28;20006;-75
2023/03/07 05:22:37;;;;;;;;;;;;;;;5.99;61.04;95722.81;4991854;28;19913;-75
2023/03/07 05:25:02;;;;;;;;;;;;;;;6.16;60.50;95720.06;4975315;28;19913;-75
2023/03/07 05:27:28;;;;;;;;;;;;;;;6.14;60.51;95722.13;5007062;28;20261;-76
2023/03/07 05:29:53;;;;;;;;;;;;;;;5.98;59.81;95718.66;5006495;28;19913;-75
2023/03/07 05:32:18;;;;;;;;;;;;;;;5.95;60.64;95711.41;4991451;28;20159;-75
2023/03/07 05:34:45;;;;;;;;;;;;;;;5.62;61.19;95705.53;4983892;28;20317;-74
2023/03/07 05:37:11;;;;;;;;;;;;;;;6.05;60.73;95701.16;5007204;28;19916;-74
2023/03/07 05:39:36;;;;;;;;;;;;;;;6.18;59.80;95695.50;5008334;28;20373;-75
2023/03/07 05:42:01;;;;;;;;;;;;;;;6.15;59.77;95701.22;4967429;28;19925;-77
2023/03/07 05:44:27;;;;;;;;;;;;;;;5.99;59.59;95691.81;5006781;28;19919;-77
2023/03/07 05:46:52;;;;;;;;;;;;;;;6.19;60.03;95691.91;5007213;28;19913;-77
2023/03/07 05:49:17;;;;;;;;;;;;;;;6.19;59.22;95691.91;5003977;28;20304;-77
2023/03/07 05:51:42;;;;;;;;;;;;;;;6.13;59.31;95695.50;5007134;28;19913;-77
2023/03/07 05:54:08;;;;;;;;;;;;;;;6.21;59.11;95698.66;4974608;28;19920;-77
2023/03/07 05:56:33;;;;;;;;;;;;;;;5.84;60.00;95683.97;4990520;28;20356;-77
2023/03/07 05:58:58;;;;;;;;;;;;;;;5.98;59.15;95685.88;4990200;28;19917;-77
2023/03/07 06:01:23;;;;;;;;;;;;;;;5.97;59.17;95686.91;4988475;28;19923;-77
2023/03/07 06:03:49;;;;;;;;;;;;;;;5.95;60.03;95694.09;5006622;28;20011;-77
2023/03/07 06:06:14;;;;;;;;;;;;;;;5.95;60.03;95696.69;4973203;28;19914;-77
2023/03/07 06:08:39;;;;;;;;;;;;;;;6.08;59.01;95695.47;4973438;28;20404;-77
2023/03/07 06:11:04;;;;;;;;;;;;;;;6.14;58.54;95694.47;4995380;28;19920;-77
2023/03/07 06:13:30;;;;;;;;;;;;;;;6.25;58.57;95686.75;4975058;28;19918;-77
2023/03/07 06:15:55;;;;;;;;;;;;;;;6.07;59.03;95690.56;5005736;28;19924;-77
2023/03/07 06:18:21;;;;;;;;;;;;;;;6.12;58.56;95683.63;4971472;28;19936;-77
2023/03/07 06:21:06;;;;;;;;;;;;;;;6.21;58.96;95683.13;4973374;28;19951;-77
2023/03/07 06:23:33;;;;;;;;;;;;;;;6.06;58.31;95689.78;5005261;28;20229;-76
2023/03/07 06:25:59;;;;;;;;;;;;;;;5.96;58.98;95684.56;4989238;28;20404;-77
2023/03/07 06:28:24;;;;;;;;;;;;;;;6.11;58.27;95689.81;4973304;28;19917;-77
2023/03/07 06:30:49;;;;;;;;;;;;;;;6.31;57.56;95693.50;4990321;28;19913;-77
2023/03/07 06:33:15;;;;;;;;;;;;;;;6.00;57.90;95680.47;4967614;28;19920;-77
2023/03/07 06:35:40;;;;;;;;;;;;;;;5.91;58.76;95689.69;4968236;28;19964;-77
2023/03/07 06:38:06;;;;;;;;;;;;;;;6.27;58.08;95697.63;4989345;28;19980;-76
2023/03/07 06:40:31;;;;;;;;;;;;;;;6.37;57.29;95692.47;4974569;28;20391;-77
2023/03/07 06:42:57;;;;;;;;;;;;;;;6.36;57.69;95691.72;4993687;28;19913;-77
2023/03/07 06:45:22;;;;;;;;;;;;;;;6.17;57.48;95693.97;4995378;28;20459;-77
2023/03/07 06:47:47;;;;;;;;;;;;;;;6.31;57.71;95698.69;4974701;28;19961;-77
2023/03/07 06:50:12;;;;;;;;;;;;;;;6.31;57.13;95704.63;4984382;28;19917;-76
2023/03/07 06:52:38;;;;;;;;;;;;;;;6.25;57.49;95700.44;5008572;28;19913;-77
2023/03/07 06:55:03;;;;;;;;;;;;;;;6.07;57.31;95699.09;4977953;28;19914;-77
2023/03/07 06:57:28;;;;;;;;;;;;;;;6.30;57.54;95697.13;4993783;28;19913;-77
2023/03/07 06:59:54;;;;;;;;;;;;;;;6.17;58.37;95696.56;4975222;28;20297;-77
2023/03/07 07:02:20;;;;;;;;;;;;;;;6.15;57.74;95701.22;4989702;28;19964;-77
2023/03/07 07:04:45;;;;;;;;;;;;;;;6.34;57.92;95698.16;4974742;28;19917;-77
2023/03/07 07:07:11;;;;;;;;;;;;;;;6.55;56.89;95696.44;4992034;28;19936;-77
2023/03/07 07:09:36;;;;;;;;;;;;;;;6.52;56.39;95700.28;4995096;28;20072;-77
2023/03/07 07:12:01;;;;;;;;;;;;;;;6.46;56.44;95693.56;4977474;28;20053;-77
2023/03/07 07:14:26;;;;;;;;;;;;;;;6.57;56.54;95697.72;4996961;28;19917;-77
2023/03/07 07:16:52;;;;;;;;;;;;;;;6.37;56.91;95693.28;4973387;28;19920;-77
2023/03/07 07:19:17;;;;;;;;;;;;;;;6.37;56.36;95693.28;4993187;28;20004;-77
2023/03/07 07:21:42;;;;;;;;;;;;;;;6.52;56.00;95695.13;5011938;28;19913;-77
2023/03/07 07:24:10;;;;;;;;;;;;;;;6.17;57.32;95699.13;4993195;28;20168;-77
2023/03/07 07:26:35;;;;;;;;;;;;;;;6.52;55.98;95695.13;4977225;28;20004;-77
2023/03/07 07:29:00;;;;;;;;;;;;;;;6.57;54.79;95697.72;4994088;28;20025;-76
2023/03/07 07:31:25;;;;;;;;;;;;;;;6.47;55.37;95695.09;5008362;28;20364;-77
2023/03/07 07:33:51;;;;;;;;;;;;;;;6.66;55.89;95695.41;5009403;28;19913;-77
2023/03/07 07:36:16;;;;;;;;;;;;;;;6.46;55.96;95692.78;4988623;28;20161;-77
2023/03/07 07:38:41;;;;;;;;;;;;;;;6.19;55.89;95702.25;4977056;28;20010;-77
2023/03/07 07:41:06;;;;;;;;;;;;;;;6.36;56.65;95685.78;4991777;28;20314;-77
2023/03/07 07:43:32;;;;;;;;;;;;;;;6.66;55.92;95692.06;4975930;28;19913;-77
2023/03/07 07:45:57;;;;;;;;;;;;;;;6.70;55.11;95690.50;4977129;28;19909;-77
2023/03/07 07:48:22;;;;;;;;;;;;;;;6.41;56.41;95690.16;4977120;28;19920;-76
2023/03/07 07:50:47;;;;;;;;;;;;;;;6.66;55.65;95679.88;5009499;28;20360;-77
2023/03/07 07:53:15;;;;;;;;;;;;;;;6.52;55.27;95678.84;5009440;28;19917;-77
2023/03/07 07:55:41;;;;;;;;;;;;;;;6.88;54.84;95681.50;4993214;28;20177;-77
2023/03/07 07:58:06;;;;;;;;;;;;;;;6.99;54.50;95677.09;4991692;28;19917;-77
2023/03/07 08:00:31;;;;;;;;;;;;;;;6.89;54.39;95680.47;4993849;28;20177;-77
2023/03/07 08:02:57;;;;;;;;;;;;;;;6.63;55.32;95670.06;5009206;28;19920;-77
2023/03/07 08:05:22;;;;;;;;;;;;;;;6.88;55.27;95671.91;4976166;28;19913;-76
2023/03/07 08:07:49;;;;;;;;;;;;;;;6.89;54.57;95668.28;5008051;28;19920;-77
2023/03/07 08:10:14;;;;;;;;;;;;;;;6.97;54.54;95674.00;4991525;28;19971;-77
2023/03/07 08:12:41;;;;;;;;;;;;;;;7.00;54.47;95670.88;4993450;28;19921;-77
2023/03/07 08:15:06;;;;;;;;;;;;;;;6.85;54.69;95669.81;4991017;28;19920;-76
2023/03/07 08:17:31;;;;;;;;;;;;;;;6.85;54.28;95675.00;4992542;28;19913;-76
2023/03/07 08:20:00;;;;;;;;;;;;;;;7.00;55.46;95671.66;4974971;28;19925;-76
2023/03/07 08:22:25;;;;;;;;;;;;;;;6.90;54.72;95669.06;5006779;28;19924;-76
2023/03/07 08:24:51;;;;;;;;;;;;;;;6.87;53.91;95665.19;5009320;28;19910;-77
2023/03/07 08:27:16;;;;;;;;;;;;;;;7.15;54.22;95662.38;4986801;28;20534;-77
2023/03/07 08:29:41;;;;;;;;;;;;;;;7.22;53.94;95670.63;5024598;28;19913;-77
2023/03/07 08:32:07;;;;;;;;;;;;;;;7.12;53.78;95671.41;4992063;28;19971;-77
2023/03/07 08:34:32;;;;;;;;;;;;;;;7.28;53.40;95675.56;4987673;28;19924;-77
2023/03/07 08:36:58;;;;;;;;;;;;;;;7.29;54.26;95671.16;4989024;28;19914;-77
2023/03/07 08:39:23;;;;;;;;;;;;;;;7.37;53.95;95680.19;4974682;28;19987;-77
2023/03/07 08:41:48;;;;;;;;;;;;;;;7.74;53.11;95666.94;4989061;28;20254;-77
2023/03/07 08:44:13;;;;;;;;;;;;;;;7.99;52.53;95667.91;4967819;28;20013;-77
2023/03/07 08:46:38;;;;;;;;;;;;;;;8.25;52.67;95660.81;4987065;28;20418;-77
2023/03/07 08:49:04;;;;;;;;;;;;;;;8.71;50.91;95668.38;4974716;28;19913;-77
2023/03/07 08:51:29;;;;;;;;;;;;;;;8.49;50.19;95658.38;5009069;28;19937;-77
2023/03/07 08:53:54;;;;;;;;;;;;;;;8.29;50.85;95653.25;4987851;28;19914;-77
2023/03/07 08:56:20;;;;;;;;;;;;;;;7.87;51.70;95660.44;4987636;28;19920;-77
2023/03/07 08:58:45;;;;;;;;;;;;;;;7.73;51.87;95657.63;4986423;28;19913;-77
2023/03/07 09:01:11;;;;;;;;;;;;;;;7.83;52.33;95655.00;4991328;28;19916;-77
2023/03/07 09:03:37;;;;;;;;;;;;;;;8.25;51.54;95650.44;4989847;28;20336;-77
2023/03/07 09:06:02;;;;;;;;;;;;;;;8.39;51.39;95648.03;5007684;28;19940;-77
2023/03/07 09:08:28;;;;;;;;;;;;;;;8.40;51.63;95658.13;4975181;28;19916;-77
2023/03/07 09:10:53;;;;;;;;;;;;;;;7.74;52.63;95651.38;4972101;28;19921;-77
2023/03/07 09:13:18;;;;;;;;;;;;;;;8.17;52.64;95654.34;4983850;28;19920;-77
2023/03/07 09:15:44;;;;;;;;;;;;;;;8.49;51.07;95655.03;4975585;28;19917;-77
2023/03/07 09:18:09;;;;;;;;;;;;;;;8.89;50.58;95655.78;4991309;28;19927;-78
2023/03/07 09:20:36;;;;;;;;;;;;;;;8.32;51.36;95652.75;4988309;28;19968;-78
2023/03/07 09:23:01;;;;;;;;;;;;;;;8.41;52.04;95656.31;4979476;28;20017;-77
2023/03/07 09:25:27;;;;;;;;;;;;;;;8.55;50.67;95649.53;5007324;28;20395;-77
2023/03/07 09:27:52;;;;;;;;;;;;;;;8.73;50.54;95655.91;4966640;28;20648;-77
2023/03/07 09:30:18;;;;;;;;;;;;;;;8.81;49.17;95650.13;4984027;28;19991;-77
2023/03/07 09:32:43;;;;;;;;;;;;;;;8.87;49.10;95653.47;5024142;28;20288;-77
2023/03/07 09:35:09;;;;;;;;;;;;;;;8.61;50.19;95650.28;4982815;28;19983;-77
2023/03/07 09:37:34;;;;;;;;;;;;;;;8.93;48.98;95638.66;4988742;28;19920;-77
2023/03/07 09:40:00;;;;;;;;;;;;;;;8.76;50.35;95657.97;5007529;28;19913;-77
2023/03/07 09:42:33;;;;;;;;;;;;;;;8.60;50.82;95651.31;4993318;28;20280;-77
2023/03/07 09:45:10;;;;;;;;;;;;;;;8.88;50.20;95646.47;5016344;28;20059;-77
2023/03/07 09:47:41;;;;;;;;;;;;;;;9.12;50.08;95642.13;4990906;28;19913;-78
2023/03/07 09:50:11;;;;;;;;;;;;;;;9.23;48.34;95640.22;4987902;28;19977;-77
2023/03/07 09:52:37;;;;;;;;;;;;;;;9.33;49.13;95631.56;5005395;28;19913;-77
2023/03/07 09:55:04;;;;;;;;;;;;;;;9.76;47.94;95629.06;4990925;28;19913;-77
2023/03/07 09:57:30;;;;;;;;;;;;;;;9.37;49.50;95637.75;4990741;28;19921;-78
2023/03/07 10:00:04;;;;;;;;;;;;;;;9.54;47.61;95619.94;4989898;28;19921;-78
2023/03/07 10:02:34;;;;;;;;;;;;;;;9.66;47.86;95627.31;5007373;28;19928;-77
2023/03/07 10:05:05;;;;;;;;;;;;;;;9.87;47.90;95621.91;4971031;28;19980;-78
2023/03/07 10:07:30;;;;;;;;;;;;;;;9.78;47.88;95621.75;4990944;28;20369;-77
2023/03/07 10:09:56;;;;;;;;;;;;;;;9.54;47.61;95622.53;4991165;28;19944;-77
2023/03/07 10:12:30;;;;;;;;;;;;;;;9.88;47.86;95621.63;4988826;28;19913;-78
2023/03/07 10:14:58;;;;;;;;;;;;;;;10.23;46.75;95611.06;4987950;28;19941;-77
2023/03/07 10:17:42;;;;;;;;;;;;;;;10.24;45.72;95620.44;4992462;28;20000;-78
2023/03/07 10:20:24;;;;;;;;;;;;;;;10.35;47.50;95618.50;5011060;28;20480;-77
2023/03/07 10:23:00;;;;;;;;;;;;;;;10.19;47.55;95605.66;4994329;28;19921;-78
2023/03/07 10:25:28;;;;;;;;;;;;;;;10.15;46.95;95609.88;4993141;28;19921;-77
2023/03/07 10:27:59;;;;;;;;;;;;;;;10.10;47.40;95602.16;5012042;28;19919;-77
2023/03/07 10:30:24;;;;;;;;;;;;;;;10.11;45.73;95603.69;4994162;28;19920;-78
2023/03/07 10:32:54;;;;;;;;;;;;;;;10.35;47.03;95602.88;4992745;28;19913;-77
2023/03/07 10:35:21;;;;;;;;;;;;;;;10.97;45.79;95603.53;4989530;28;19967;-78
2023/03/07 10:37:49;;;;;;;;;;;;;;;11.07;46.10;95586.97;4977040;28;19913;-78
2023/03/07 10:40:16;;;;;;;;;;;;;;;10.89;44.71;95596.38;5011056;28;19924;-77
2023/03/07 10:42:41;;;;;;;;;;;;;;;11.00;45.34;95602.19;4975755;28;19916;-78
2023/03/07 10:45:10;;;;;;;;;;;;;;;10.88;44.10;95602.63;4975128;28;19923;-78
2023/03/07 10:47:35;;;;;;;;;;;;;;;10.44;45.68;95596.00;4994061;28;19992;-77
2023/03/07 10:50:33;;;;;;;;;;;;;;;10.51;46.15;95599.03;5008276;28;20013;-78
2023/03/07 10:52:59;;;;;;;;;;;;;;;10.52;46.50;95597.19;4960634;28;19929;-78
2023/03/07 10:55:35;;;;;;;;;;;;;;;10.34;46.49;95593.56;4993239;28;19913;-77
2023/03/07 10:58:27;;;;;;;;;;;;;;;10.47;46.47;95585.03;4974809;28;19917;-77
2023/03/07 11:01:09;;;;;;;;;;;;;;;10.05;47.41;95582.16;4987491;28;19935;-78
2023/03/07 11:03:37;;;;;;;;;;;;;;;9.94;47.36;95578.94;5002687;28;19917;-77
2023/03/07 11:06:03;;;;;;;;;;;;;;;9.99;48.10;95580.72;5012075;28;19917;-77
2023/03/07 11:08:30;;;;;;;;;;;;;;;9.95;46.44;95584.91;4994986;28;19921;-78
2023/03/07 11:10:55;;;;;;;;;;;;;;;10.09;46.64;95584.97;4993776;28;19936;-77
2023/03/07 11:13:21;;;;;;;;;;;;;;;10.20;45.86;95585.66;4993024;28;20016;-77
2023/03/07 11:15:47;;;;;;;;;;;;;;;10.35;45.78;95592.47;4993930;28;19995;-78
2023/03/07 11:18:39;;;;;;;;;;;;;;;10.50;45.61;95589.66;4978996;28;19913;-78
2023/03/07 11:21:04;;;;;;;;;;;;;;;10.17;46.20;95588.78;4993509;28;19928;-77
2023/03/07 11:23:30;;;;;;;;;;;;;;;9.79;46.76;95591.34;4991987;28;19913;-77
2023/03/07 11:25:56;;;;;;;;;;;;;;;9.83;45.18;95561.91;4977157;28;20163;-78
2023/03/07 11:28:26;;;;;;;;;;;;;;;9.92;44.80;95573.25;4992651;28;20050;-77
2023/03/07 11:30:52;;;;;;;;;;;;;;;10.79;45.55;95575.69;5003342;28;19920;-78
2023/03/07 11:33:22;;;;;;;;;;;;;;;10.65;45.02;95568.63;4982045;28;19917;-78
2023/03/07 11:36:06;;;;;;;;;;;;;;;11.21;45.66;95579.19;4988692;28;19952;-78
2023/03/07 11:38:35;;;;;;;;;;;;;;;11.72;42.98;95556.59;4993015;28;19967;-78
2023/03/07 11:41:08;;;;;;;;;;;;;;;11.88;43.00;95563.06;4999181;28;19942;-78
2023/03/07 11:43:36;;;;;;;;;;;;;;;11.57;42.91;95558.47;4980168;28;19960;-78
2023/03/07 11:46:09;;;;;;;;;;;;;;;11.53;41.22;95559.31;5006240;28;20012;-77
2023/03/07 11:48:34;;;;;;;;;;;;;;;10.91;44.91;95563.00;5000069;28;19960;-77
2023/03/07 11:51:02;;;;;;;;;;;;;;;10.67;43.88;95558.69;5009272;28;19948;-77
2023/03/07 11:53:39;;;;;;;;;;;;;;;10.45;44.28;95569.72;4992495;28;19967;-77
2023/03/07 11:56:14;;;;;;;;;;;;;;;10.16;44.84;95553.44;4990743;28;19960;-77
2023/03/07 11:58:58;;;;;;;;;;;;;;;9.79;46.22;95549.75;5005973;28;19913;-78
2023/03/07 12:01:23;;;;;;;;;;;;;;;9.91;45.30;95550.88;5009081;28;19913;-76
2023/03/07 12:03:52;;;;;;;;;;;;;;;10.63;44.92;95552.50;5010694;28;19917;-78
2023/03/07 12:06:27;;;;;;;;;;;;;;;10.98;45.13;95541.81;4989184;28;19953;-78
2023/03/07 12:09:07;;;;;;;;;;;;;;;11.08;43.75;95540.88;4992208;28;19913;-78
2023/03/07 12:11:35;;;;;;;;;;;;;;;10.80;43.09;95535.59;5008381;28;20004;-77
2023/03/07 12:14:03;;;;;;;;;;;;;;;10.35;44.65;95535.25;5009650;28;19913;-78
2023/03/07 12:16:29;;;;;;;;;;;;;;;10.53;44.88;95531.84;4990499;28;19913;-78
2023/03/07 12:19:03;;;;;;;;;;;;;;;10.88;44.49;95527.13;5011719;28;19913;-77
2023/03/07 12:21:29;;;;;;;;;;;;;;;10.81;45.07;95519.69;5009391;28;19936;-78
2023/03/07 12:23:56;;;;;;;;;;;;;;;10.85;45.48;95520.66;5012770;28;20377;-78
2023/03/07 12:26:26;;;;;;;;;;;;;;;10.89;44.72;95514.88;4988978;28;19917;-77
2023/03/07 12:28:56;;;;;;;;;;;;;;;10.94;43.57;95520.78;4991998;28;19913;-78
2023/03/07 12:31:23;;;;;;;;;;;;;;;10.84;42.81;95511.28;4976267;28;19921;-78
2023/03/07 12:34:07;;;;;;;;;;;;;;;10.70;42.09;95507.91;4974513;28;19913;-76
2023/03/07 12:36:41;;;;;;;;;;;;;;;10.18;44.52;95500.09;5018986;28;19913;-78
2023/03/07 12:39:15;;;;;;;;;;;;;;;10.22;44.64;95506.25;5009696;28;19917;-77
2023/03/07 12:41:53;;;;;;;;;;;;;;;10.62;43.84;95505.94;4992597;28;19924;-78
2023/03/07 12:44:36;;;;;;;;;;;;;;;10.58;44.21;95497.19;5019406;28;19913;-77
2023/03/07 12:47:02;;;;;;;;;;;;;;;10.23;46.17;95500.03;4985732;28;19920;-77
2023/03/07 12:49:27;;;;;;;;;;;;;;;10.23;43.79;95496.63;4990959;28;20007;-77
2023/03/07 12:51:54;;;;;;;;;;;;;;;10.16;44.55;95502.22;5007752;28;19914;-77
2023/03/07 12:54:25;;;;;;;;;;;;;;;9.86;44.28;95501.56;4987457;28;19917;-77